Time;durP1;ratioP1;P1;durP2;ratioP2;P2;SDS_P1;SDS_P2;PMS_P1;PMS_P2;Temp;Humidity;BMP_temperature;BMP_pressure;BME280_temperature;BME280_humidity;BME280_pressure;Samples;Min_cycle;Max_cycle;Signal;HPM_P1;HPM_P2
2022/12/13 00:00:18;;;;;;;15.95;11.75;;;14.30;58.70;;;;;;4985886;28;20038;-30
2022/12/13 00:02:44;;;;;;;17.33;11.90;;;14.30;58.60;;;;;;4987265;28;20042;-31
2022/12/13 00:05:10;;;;;;;15.43;10.70;;;14.00;59.20;;;;;;4987235;28;20610;-28
2022/12/13 00:07:35;;;;;;;16.50;11.07;;;13.90;59.20;;;;;;4979858;28;20050;-28
2022/12/13 00:10:02;;;;;;;17.35;11.07;;;14.00;59.10;;;;;;4987341;28;20069;-28
2022/12/13 00:12:27;;;;;;;15.15;10.43;;;14.00;59.20;;;;;;4986926;28;20101;-28
2022/12/13 00:14:53;;;;;;;14.95;10.10;;;14.00;59.30;;;;;;4990361;28;20050;-31
2022/12/13 00:17:18;;;;;;;14.88;10.73;;;14.10;59.00;;;;;;4987869;28;20042;-30
2022/12/13 00:19:46;;;;;;;13.80;10.80;;;14.00;59.20;;;;;;4987080;28;20050;-29
2022/12/13 00:22:11;;;;;;;15.32;10.27;;;13.90;59.40;;;;;;4988313;28;20046;-23
2022/12/13 00:24:37;;;;;;;14.82;9.85;;;13.90;59.30;;;;;;4984557;28;20049;-30
2022/12/13 00:27:02;;;;;;;14.45;9.38;;;13.90;60.00;;;;;;4986673;28;20137;-31
2022/12/13 00:29:28;;;;;;;13.32;9.75;;;13.90;59.10;;;;;;4988552;28;20101;-29
2022/12/13 00:31:54;;;;;;;12.80;9.88;;;14.00;59.10;;;;;;4985394;28;20030;-28
2022/12/13 00:34:19;;;;;;;16.63;10.85;;;13.90;59.30;;;;;;4986407;28;20627;-28
2022/12/13 00:36:45;;;;;;;12.85;9.77;;;14.00;58.90;;;;;;4989278;28;20042;-29
2022/12/13 00:39:12;;;;;;;12.25;9.10;;;13.80;59.80;;;;;;4989656;28;20046;-31
2022/12/13 00:41:38;;;;;;;11.50;8.77;;;13.90;59.10;;;;;;4986112;28;20426;-28
2022/12/13 00:44:04;;;;;;;15.20;10.10;;;13.80;60.10;;;;;;4988372;28;20503;-27
2022/12/13 00:46:30;;;;;;;12.40;9.50;;;13.70;59.70;;;;;;4986562;28;20801;-31
2022/12/13 00:48:57;;;;;;;12.68;9.57;;;13.60;59.70;;;;;;5005415;28;20046;-28
2022/12/13 00:51:23;;;;;;;12.25;8.73;;;13.60;59.70;;;;;;4986661;28;20082;-28
2022/12/13 00:53:48;;;;;;;13.18;9.05;;;13.60;59.70;;;;;;4987624;28;20054;-29
2022/12/13 00:56:20;;;;;;;10.93;8.70;;;13.50;59.80;;;;;;4986412;28;20050;-28
2022/12/13 00:58:46;;;;;;;10.82;8.65;;;13.50;59.80;;;;;;4986814;28;20047;-28
2022/12/13 01:01:13;;;;;;;11.68;8.68;;;13.50;59.90;;;;;;4986170;28;20062;-30
2022/12/13 01:03:38;;;;;;;11.93;9.77;;;13.60;59.80;;;;;;4990082;28;20038;-30
2022/12/13 01:06:32;;;;;;;10.07;8.10;;;13.50;59.80;;;;;;4986276;28;20109;-30
2022/12/13 01:08:58;;;;;;;10.60;8.57;;;13.60;59.70;;;;;;4982925;28;20074;-28
2022/12/13 01:11:24;;;;;;;8.82;7.63;;;13.60;59.70;;;;;;4987206;28;20081;-29
2022/12/13 01:13:49;;;;;;;10.45;8.35;;;13.60;59.50;;;;;;4992507;28;20419;-27
2022/12/13 01:16:15;;;;;;;9.10;7.60;;;13.60;59.50;;;;;;4984147;28;20046;-29
2022/12/13 01:18:41;;;;;;;11.63;8.43;;;13.60;59.50;;;;;;4985921;28;20559;-29
2022/12/13 01:21:11;;;;;;;8.90;7.85;;;13.50;59.60;;;;;;4988130;28;20524;-28
2022/12/13 01:23:37;;;;;;;10.18;7.80;;;13.60;59.50;;;;;;4984795;28;20061;-31
2022/12/13 01:26:03;;;;;;;9.00;8.00;;;13.60;59.50;;;;;;4985446;28;20120;-28
2022/12/13 01:28:29;;;;;;;8.40;7.60;;;13.60;59.50;;;;;;4987415;28;20042;-27
2022/12/13 01:31:00;;;;;;;7.35;6.57;;;13.60;59.30;;;;;;4990140;28;20467;-29
2022/12/13 01:33:25;;;;;;;9.70;7.63;;;13.60;59.30;;;;;;4990053;28;20056;-28
2022/12/13 01:35:51;;;;;;;8.45;7.15;;;13.70;59.20;;;;;;4989681;28;20038;-28
2022/12/13 01:38:17;;;;;;;8.38;6.68;;;13.70;59.30;;;;;;4990250;28;20083;-27
2022/12/13 01:40:47;;;;;;;8.52;7.20;;;13.60;59.20;;;;;;4990017;28;20666;-28
2022/12/13 01:43:13;;;;;;;9.20;6.78;;;13.60;59.20;;;;;;4988993;28;20050;-32
2022/12/13 01:45:39;;;;;;;8.55;6.95;;;13.70;59.30;;;;;;4986671;28;20046;-30
2022/12/13 01:48:06;;;;;;;9.07;7.32;;;13.60;59.00;;;;;;4991567;28;20065;-29
2022/12/13 01:50:38;;;;;;;8.40;6.80;;;13.60;59.10;;;;;;4988734;28;20038;-31
2022/12/13 01:53:05;;;;;;;7.22;6.53;;;13.70;58.90;;;;;;4985630;28;20102;-31
2022/12/13 01:55:32;;;;;;;8.25;7.00;;;13.70;59.10;;;;;;4987963;28;20053;-33
2022/12/13 01:57:58;;;;;;;8.20;7.00;;;13.70;58.80;;;;;;4988336;28;20172;-27
2022/12/13 02:00:25;;;;;;;8.50;7.57;;;13.60;59.00;;;;;;4990229;28;20468;-28
2022/12/13 02:02:50;;;;;;;7.05;6.35;;;13.60;59.00;;;;;;4990275;28;20124;-28
2022/12/13 02:05:37;;;;;;;8.25;6.50;;;13.70;59.00;;;;;;4988681;28;20496;-31
2022/12/13 02:08:03;;;;;;;9.32;7.57;;;13.60;59.20;;;;;;4989815;28;20669;-29
2022/12/13 02:10:29;;;;;;;10.10;7.85;;;13.70;58.80;;;;;;4986964;28;20057;-27
2022/12/13 02:12:54;;;;;;;6.70;6.05;;;13.70;58.80;;;;;;4985178;28;20066;-29
2022/12/13 02:15:20;;;;;;;6.30;5.70;;;13.60;59.00;;;;;;4986732;28;20393;-30
2022/12/13 02:17:57;;;;;;;6.68;5.97;;;13.70;59.00;;;;;;5015751;28;20105;-29
2022/12/13 02:21:01;;;;;;;7.40;6.40;;;13.60;59.00;;;;;;4988621;28;20035;-29
2022/12/13 02:23:33;;;;;;;7.43;6.47;;;13.70;58.80;;;;;;4984143;28;20054;-29
2022/12/13 02:26:30;;;;;;;6.95;6.22;;;13.70;58.60;;;;;;4986499;28;20508;-28
2022/12/13 02:28:55;;;;;;;6.75;6.05;;;13.70;58.60;;;;;;4987802;28;20034;-33
2022/12/13 02:31:23;;;;;;;6.45;5.80;;;13.70;58.60;;;;;;4988707;28;20477;-29
2022/12/13 02:34:01;;;;;;;6.32;5.72;;;13.70;58.70;;;;;;4988549;28;20492;-29
2022/12/13 02:36:57;;;;;;;6.22;5.72;;;13.60;58.90;;;;;;5012698;28;20036;-30
2022/12/13 02:39:41;;;;;;;6.72;6.05;;;13.60;58.90;;;;;;4965263;28;20820;-26
2022/12/13 02:42:11;;;;;;;6.40;5.80;;;13.70;58.90;;;;;;4987509;28;20050;-28
2022/12/13 02:44:55;;;;;;;6.80;6.10;;;13.70;58.70;;;;;;4992833;28;20043;-29
2022/12/13 02:47:22;;;;;;;6.47;5.72;;;13.70;58.80;;;;;;4984054;28;20076;-28
2022/12/13 02:49:52;;;;;;;6.13;5.63;;;13.70;58.70;;;;;;4987726;28;20034;-28
2022/12/13 02:52:18;;;;;;;6.43;5.85;;;13.60;58.70;;;;;;4987403;28;20535;-32
2022/12/13 02:54:44;;;;;;;6.80;6.20;;;13.70;58.60;;;;;;4981213;28;20066;-30
2022/12/13 02:57:48;;;;;;;6.35;5.80;;;13.70;58.40;;;;;;4984136;28;20132;-32
2022/12/13 03:00:28;;;;;;;6.93;6.23;;;13.70;58.50;;;;;;4966607;28;20075;-29
2022/12/13 03:03:17;;;;;;;6.88;6.18;;;13.70;58.50;;;;;;4948934;28;20062;-27
2022/12/13 03:09:06;;;;;;;6.30;5.80;;;13.70;58.60;;;;;;4954528;28;20120;-28
2022/12/13 03:14:26;;;;;;;5.50;5.00;;;13.60;58.90;;;;;;4937874;28;20074;-30
2022/12/13 03:16:52;;;;;;;5.75;5.15;;;13.60;58.90;;;;;;4949029;28;20126;-30
2022/12/13 03:19:17;;;;;;;6.43;5.82;;;13.60;58.90;;;;;;4950081;28;20074;-31
2022/12/13 03:21:45;;;;;;;5.60;5.20;;;13.60;58.90;;;;;;4949876;28;20052;-28
2022/12/13 03:24:10;;;;;;;5.90;5.38;;;13.50;59.00;;;;;;4965918;28;20054;-28
2022/12/13 03:26:37;;;;;;;6.28;5.65;;;13.50;59.10;;;;;;4965232;28;20104;-27
2022/12/13 03:29:02;;;;;;;6.30;5.80;;;13.40;59.20;;;;;;4932653;28;20057;-28
2022/12/13 03:31:28;;;;;;;5.90;5.40;;;13.40;59.20;;;;;;4978148;28;20137;-28
2022/12/13 03:33:54;;;;;;;6.05;5.47;;;13.30;59.40;;;;;;4986866;28;20047;-27
2022/12/13 03:36:19;;;;;;;5.72;5.30;;;13.30;59.30;;;;;;4988491;28;20067;-28
2022/12/13 03:38:46;;;;;;;5.68;5.18;;;13.40;59.30;;;;;;4987819;28;20041;-29
2022/12/13 03:41:13;;;;;;;5.63;5.13;;;13.40;59.30;;;;;;4986883;28;20061;-30
2022/12/13 03:43:39;;;;;;;5.43;5.00;;;13.40;59.20;;;;;;4985295;28;20042;-27
2022/12/13 03:46:05;;;;;;;5.72;5.22;;;13.30;59.20;;;;;;4987793;28;20061;-30
2022/12/13 03:48:30;;;;;;;5.75;5.22;;;13.30;59.40;;;;;;4986849;28;20062;-27
2022/12/13 03:50:56;;;;;;;5.60;5.10;;;13.30;59.40;;;;;;4986196;28;20057;-30
2022/12/13 03:53:22;;;;;;;5.35;4.95;;;13.40;59.20;;;;;;4988389;28;20046;-28
2022/12/13 03:55:48;;;;;;;4.85;4.55;;;13.40;59.10;;;;;;4984717;28;20046;-29
2022/12/13 03:58:13;;;;;;;5.63;5.13;;;13.40;59.10;;;;;;4988199;28;20423;-30
2022/12/13 04:00:39;;;;;;;5.43;4.95;;;13.30;59.10;;;;;;4987354;28;20057;-27
2022/12/13 04:03:05;;;;;;;5.00;4.60;;;13.40;59.10;;;;;;4987133;28;20504;-28
2022/12/13 04:05:30;;;;;;;5.22;4.72;;;13.40;59.20;;;;;;4986200;28;20042;-33
2022/12/13 04:07:56;;;;;;;5.22;4.82;;;13.40;59.00;;;;;;4985807;28;20051;-29
2022/12/13 04:10:22;;;;;;;5.45;5.05;;;13.30;59.20;;;;;;4990372;28;20044;-31
2022/12/13 04:15:32;;;;;;;4.95;4.55;;;13.30;59.20;;;;;;4983332;28;20074;-29
2022/12/13 04:17:58;;;;;;;5.15;4.63;;;13.40;59.20;;;;;;4988222;28;20050;-30
2022/12/13 04:20:23;;;;;;;4.63;4.22;;;13.40;59.10;;;;;;4987756;28;20042;-29
2022/12/13 04:22:49;;;;;;;4.93;4.53;;;13.30;59.10;;;;;;4986038;28;20047;-29
2022/12/13 04:25:14;;;;;;;4.75;4.35;;;13.30;59.40;;;;;;4985978;28;20044;-29
2022/12/13 04:27:40;;;;;;;4.93;4.63;;;13.40;59.30;;;;;;4984129;28;20454;-30
2022/12/13 04:30:06;;;;;;;4.60;4.30;;;13.30;59.20;;;;;;4987863;28;20042;-28
2022/12/13 04:32:32;;;;;;;5.03;4.63;;;13.40;59.20;;;;;;4985634;28;20046;-30
2022/12/13 04:34:58;;;;;;;5.10;4.70;;;13.40;59.10;;;;;;4987098;28;20049;-34
2022/12/13 04:37:23;;;;;;;4.55;4.07;;;13.40;59.10;;;;;;4987308;28;20519;-28
2022/12/13 04:39:49;;;;;;;5.50;4.95;;;13.30;59.10;;;;;;4986355;28;20538;-31
2022/12/13 04:42:15;;;;;;;4.50;4.20;;;13.30;59.10;;;;;;4985721;28;20152;-32
2022/12/13 04:44:40;;;;;;;4.78;4.47;;;13.30;59.20;;;;;;4987340;28;20053;-30
2022/12/13 04:47:06;;;;;;;4.60;4.30;;;13.30;59.10;;;;;;4987045;28;20129;-28
2022/12/13 04:49:32;;;;;;;4.78;4.47;;;13.40;59.00;;;;;;4987491;28;20535;-28
2022/12/13 04:51:57;;;;;;;4.38;4.07;;;13.30;59.00;;;;;;4987155;28;20050;-27
2022/12/13 04:54:23;;;;;;;4.75;4.35;;;13.40;59.10;;;;;;4987103;28;20650;-31
2022/12/13 04:56:48;;;;;;;4.93;4.45;;;13.40;59.00;;;;;;4976042;28;20050;-29
2022/12/13 04:59:15;;;;;;;4.63;4.32;;;13.40;59.00;;;;;;4982872;28;20415;-29
2022/12/13 05:01:40;;;;;;;4.68;4.38;;;13.30;59.00;;;;;;4988289;28;20121;-29
2022/12/13 05:04:06;;;;;;;4.57;4.28;;;13.30;59.10;;;;;;4988015;28;20125;-29
2022/12/13 05:06:31;;;;;;;5.32;4.82;;;13.30;59.60;;;;;;4989215;28;20504;-28
2022/12/13 05:08:57;;;;;;;4.47;4.13;;;13.20;59.90;;;;;;4989952;28;20046;-30
2022/12/13 05:11:22;;;;;;;5.15;4.55;;;13.30;59.80;;;;;;4990592;28;20495;-28
2022/12/13 05:13:48;;;;;;;4.72;4.30;;;13.30;59.90;;;;;;4989585;28;20097;-28
2022/12/13 05:16:14;;;;;;;4.47;4.18;;;13.30;60.00;;;;;;4988382;28;20573;-28
2022/12/13 05:18:40;;;;;;;4.57;4.28;;;13.40;60.00;;;;;;4985402;28;20050;-28
2022/12/13 05:21:07;;;;;;;4.43;4.10;;;13.30;60.00;;;;;;4992185;28;20046;-33
2022/12/13 05:23:33;;;;;;;4.60;4.20;;;13.30;60.20;;;;;;4988173;28;20042;-29
2022/12/13 05:25:59;;;;;;;4.82;4.50;;;13.20;60.40;;;;;;4991318;28;20049;-27
2022/12/13 05:28:26;;;;;;;4.53;4.22;;;13.30;60.40;;;;;;4991865;28;20034;-30
2022/12/13 05:30:56;;;;;;;4.97;4.57;;;13.30;60.20;;;;;;4990837;28;20038;-34
2022/12/13 05:33:22;;;;;;;4.40;4.10;;;13.20;60.20;;;;;;4986431;28;20578;-29
2022/12/13 05:35:47;;;;;;;3.38;3.17;;;13.20;60.20;;;;;;4987211;28;20035;-28
2022/12/13 05:38:13;;;;;;;4.70;4.30;;;13.30;60.30;;;;;;4990561;28;20504;-33
2022/12/13 05:40:39;;;;;;;4.22;3.92;;;13.30;60.10;;;;;;4987775;28;20051;-37
2022/12/13 05:43:04;;;;;;;4.30;4.00;;;13.30;60.00;;;;;;4974927;28;20774;-35
2022/12/13 05:45:30;;;;;;;3.75;3.55;;;13.20;60.00;;;;;;4986663;28;20054;-36
2022/12/13 05:47:56;;;;;;;4.30;4.00;;;13.30;60.10;;;;;;4983173;28;20096;-37
2022/12/13 05:50:21;;;;;;;4.13;3.83;;;13.30;60.10;;;;;;4986522;28;20166;-35
2022/12/13 05:52:47;;;;;;;4.43;4.05;;;13.30;60.00;;;;;;4988390;28;20066;-35
2022/12/13 05:55:13;;;;;;;4.55;4.25;;;13.30;60.00;;;;;;4989666;28;20050;-34
2022/12/13 05:57:38;;;;;;;4.57;4.28;;;13.20;60.10;;;;;;4989097;28;20050;-43
2022/12/13 06:00:05;;;;;;;4.20;3.90;;;13.20;60.10;;;;;;4987849;28;20206;-37
2022/12/13 06:02:31;;;;;;;4.35;4.05;;;13.20;60.00;;;;;;4988884;28;20149;-36
2022/12/13 06:04:56;;;;;;;3.40;3.20;;;13.30;59.90;;;;;;4989299;28;20570;-37
2022/12/13 06:07:22;;;;;;;4.10;3.80;;;13.30;60.00;;;;;;4988499;28;20122;-39
2022/12/13 06:09:47;;;;;;;4.20;3.90;;;13.30;60.30;;;;;;4988490;28;20102;-48
2022/12/13 06:12:15;;;;;;;4.22;3.92;;;13.20;60.90;;;;;;4989685;28;20038;-48
2022/12/13 06:14:40;;;;;;;4.80;4.40;;;13.20;61.00;;;;;;4989556;28;20054;-47
2022/12/13 06:17:06;;;;;;;7.82;7.07;;;13.20;62.30;;;;;;4990125;28;20050;-50
2022/12/13 06:19:32;;;;;;;8.82;7.93;;;13.20;63.40;;;;;;4988868;28;20563;-48
2022/12/13 06:21:57;;;;;;;11.73;8.48;;;13.20;63.30;;;;;;4987124;28;20047;-47
2022/12/13 06:24:23;;;;;;;12.90;9.30;;;13.20;62.80;;;;;;4988913;28;20077;-46
2022/12/13 06:26:49;;;;;;;11.88;9.15;;;13.20;62.70;;;;;;4989302;28;20102;-47
2022/12/13 06:29:15;;;;;;;11.57;9.05;;;13.20;62.50;;;;;;4990025;28;20141;-46
2022/12/13 06:31:41;;;;;;;13.05;9.48;;;13.30;62.60;;;;;;5005401;28;20045;-46
2022/12/13 06:34:06;;;;;;;11.15;8.85;;;13.50;62.20;;;;;;4986888;28;20046;-47
2022/12/13 06:36:32;;;;;;;11.73;9.45;;;13.50;62.40;;;;;;4988210;28;20061;-36
2022/12/13 06:39:04;;;;;;;11.80;8.75;;;13.50;63.10;;;;;;4990046;28;20036;-45
2022/12/13 06:41:30;;;;;;;10.90;8.50;;;13.50;63.00;;;;;;4986686;28;20049;-48
2022/12/13 06:43:55;;;;;;;14.82;9.27;;;13.50;62.50;;;;;;4986282;28;20057;-46
2022/12/13 06:46:21;;;;;;;12.52;9.20;;;13.50;62.80;;;;;;4989277;28;20050;-46
2022/12/13 06:48:47;;;;;;;12.63;8.77;;;13.40;62.90;;;;;;4987689;28;20579;-45
2022/12/13 06:51:13;;;;;;;10.38;8.70;;;13.40;62.90;;;;;;4987957;28;20042;-46
2022/12/13 06:53:40;;;;;;;11.63;8.73;;;13.50;62.70;;;;;;4986849;28;20100;-44
2022/12/13 06:56:09;;;;;;;16.02;9.05;;;13.60;62.50;;;;;;4992199;28;20050;-46
2022/12/13 06:58:35;;;;;;;14.57;9.52;;;13.50;62.30;;;;;;4985498;28;20176;-45
2022/12/13 07:01:21;;;;;;;10.77;9.68;;;13.40;62.20;;;;;;4991829;28;20128;-46
2022/12/13 07:03:46;;;;;;;12.27;9.00;;;13.40;62.30;;;;;;4991904;28;20204;-46
2022/12/13 07:06:19;;;;;;;12.07;8.95;;;13.40;62.20;;;;;;4987119;28;20133;-46
2022/12/13 07:09:03;;;;;;;11.00;8.35;;;13.40;62.20;;;;;;4986372;28;20065;-45
2022/12/13 07:11:29;;;;;;;12.17;9.17;;;13.40;62.00;;;;;;4989053;28;20580;-46
2022/12/13 07:13:55;;;;;;;10.82;8.75;;;13.40;62.10;;;;;;4987928;28;20503;-46
2022/12/13 07:16:21;;;;;;;11.85;8.48;;;13.50;62.80;;;;;;4989333;28;20068;-45
2022/12/13 07:18:46;;;;;;;9.93;8.43;;;13.50;61.70;;;;;;4989083;28;20042;-45
2022/12/13 07:21:13;;;;;;;11.13;8.85;;;13.50;61.70;;;;;;4986646;28;20050;-46
2022/12/13 07:23:39;;;;;;;12.65;7.50;;;13.60;61.50;;;;;;4987117;28;20054;-45
2022/12/13 07:26:05;;;;;;;10.13;7.72;;;13.60;61.10;;;;;;4986888;28;20459;-46
2022/12/13 07:28:34;;;;;;;9.63;7.93;;;13.50;61.50;;;;;;4987525;28;20042;-46
2022/12/13 07:31:04;;;;;;;10.75;7.43;;;13.50;61.40;;;;;;4987598;28;20046;-46
2022/12/13 07:33:30;;;;;;;11.20;8.13;;;13.50;61.20;;;;;;4987319;28;20050;-46
2022/12/13 07:36:12;;;;;;;8.85;7.95;;;13.50;61.10;;;;;;4986647;28;20109;-46
2022/12/13 07:38:38;;;;;;;9.77;7.88;;;13.50;61.40;;;;;;4986526;28;20189;-45
2022/12/13 07:41:04;;;;;;;9.88;7.90;;;13.50;62.20;;;;;;4988128;28;20529;-46
2022/12/13 07:43:30;;;;;;;9.77;7.03;;;13.60;61.20;;;;;;4987212;28;20056;-48
2022/12/13 07:45:59;;;;;;;8.27;6.93;;;13.70;60.90;;;;;;4988207;28;20079;-47
2022/12/13 07:48:25;;;;;;;8.57;7.70;;;13.60;61.20;;;;;;4982925;28;20057;-46
2022/12/13 07:50:51;;;;;;;9.57;7.38;;;13.40;63.40;;;;;;4984002;28;20157;-45
2022/12/13 07:53:17;;;;;;;9.70;7.60;;;13.40;63.10;;;;;;4987608;28;20054;-45
2022/12/13 07:55:42;;;;;;;8.32;7.28;;;13.40;63.00;;;;;;4988134;28;20045;-47
2022/12/13 07:58:10;;;;;;;8.80;7.40;;;13.40;63.20;;;;;;4989452;28;20039;-46
2022/12/13 08:00:40;;;;;;;11.32;7.35;;;13.40;63.20;;;;;;4985697;28;20058;-45
2022/12/13 08:03:05;;;;;;;11.88;8.23;;;13.40;63.20;;;;;;4984759;28;20042;-46
2022/12/13 08:05:32;;;;;;;10.88;7.63;;;13.30;63.20;;;;;;4989627;28;20097;-46
2022/12/13 08:07:58;;;;;;;7.68;6.93;;;13.30;63.00;;;;;;4987528;28;20046;-46
2022/12/13 08:10:24;;;;;;;9.23;7.03;;;13.50;62.60;;;;;;4988467;28;20058;-45
2022/12/13 08:12:50;;;;;;;7.65;6.85;;;13.50;62.50;;;;;;4985928;28;20038;-46
2022/12/13 08:15:16;;;;;;;7.57;6.88;;;13.50;62.50;;;;;;4990190;28;20046;-46
2022/12/13 08:17:41;;;;;;;8.43;7.03;;;13.50;62.40;;;;;;4986499;28;20042;-46
2022/12/13 08:20:07;;;;;;;9.02;6.90;;;13.60;62.00;;;;;;4987736;28;20062;-46
2022/12/13 08:22:33;;;;;;;8.75;6.88;;;13.70;61.70;;;;;;4988921;28;20102;-46
2022/12/13 08:24:59;;;;;;;10.07;6.57;;;13.70;61.50;;;;;;4990217;28;20112;-46
2022/12/13 08:27:24;;;;;;;6.63;5.80;;;13.80;61.40;;;;;;4990244;28;20404;-45
2022/12/13 08:29:50;;;;;;;6.35;5.80;;;13.80;61.20;;;;;;4986969;28;20141;-46
2022/12/13 08:32:15;;;;;;;7.38;6.10;;;13.90;60.70;;;;;;4987476;28;20035;-46
2022/12/13 08:34:41;;;;;;;6.40;5.68;;;13.90;60.70;;;;;;4987596;28;20068;-46
2022/12/13 08:37:06;;;;;;;6.80;6.18;;;13.80;61.60;;;;;;4987689;28;20042;-46
2022/12/13 08:39:35;;;;;;;7.53;6.60;;;13.70;61.00;;;;;;4986573;28;20089;-46
2022/12/13 08:42:02;;;;;;;6.43;5.90;;;13.70;61.10;;;;;;4990740;28;20061;-46
2022/12/13 08:44:27;;;;;;;8.00;5.97;;;13.90;60.70;;;;;;4990486;28;20034;-46
2022/12/13 08:46:53;;;;;;;6.53;5.93;;;13.90;60.40;;;;;;4991728;28;20403;-45
2022/12/13 08:49:19;;;;;;;6.78;6.13;;;13.70;60.90;;;;;;4991165;28;20097;-46
2022/12/13 08:51:44;;;;;;;6.38;5.78;;;13.80;60.90;;;;;;4990536;28;20049;-38
2022/12/13 08:54:10;;;;;;;6.28;5.75;;;13.80;60.70;;;;;;4990249;28;20130;-46
2022/12/13 08:56:36;;;;;;;6.22;5.63;;;13.80;60.80;;;;;;4998917;28;20054;-47
2022/12/13 08:59:01;;;;;;;8.35;5.80;;;13.80;60.60;;;;;;4992077;28;20038;-36
2022/12/13 09:01:27;;;;;;;5.53;5.13;;;13.90;60.40;;;;;;4990215;28;20042;-46
2022/12/13 09:03:54;;;;;;;6.47;5.88;;;13.70;60.50;;;;;;4990875;28;20124;-45
2022/12/13 09:06:20;;;;;;;5.55;5.05;;;13.70;60.70;;;;;;4992252;28;20671;-43
2022/12/13 09:08:46;;;;;;;5.38;4.97;;;13.80;60.60;;;;;;4989960;28;20515;-46
2022/12/13 09:11:11;;;;;;;6.38;5.78;;;13.90;60.30;;;;;;4991356;28;20518;-45
2022/12/13 09:13:37;;;;;;;6.07;5.50;;;13.90;60.00;;;;;;4992555;28;20547;-45
2022/12/13 09:16:14;;;;;;;6.03;4.88;;;13.80;60.30;;;;;;4989306;28;20026;-45
2022/12/13 09:18:39;;;;;;;5.43;5.03;;;13.80;60.30;;;;;;5001261;28;20511;-45
2022/12/13 09:21:09;;;;;;;6.63;6.03;;;13.70;60.20;;;;;;4992803;28;20058;-45
2022/12/13 09:23:35;;;;;;;5.35;5.00;;;13.80;60.10;;;;;;4991293;28;20515;-46
2022/12/13 09:26:01;;;;;;;5.22;4.82;;;13.80;60.20;;;;;;4990747;28;20535;-45
2022/12/13 09:28:29;;;;;;;5.50;5.00;;;13.80;59.90;;;;;;4989814;28;20149;-46
2022/12/13 09:30:55;;;;;;;5.30;4.90;;;13.80;60.00;;;;;;4989360;28;20727;-45
2022/12/13 09:33:21;;;;;;;5.35;4.93;;;13.80;60.20;;;;;;4990854;28;20038;-45
2022/12/13 09:35:47;;;;;;;5.35;4.93;;;13.80;60.10;;;;;;4989158;28;20054;-44
2022/12/13 09:38:12;;;;;;;5.05;4.65;;;13.70;60.00;;;;;;4992296;28;20122;-45
2022/12/13 09:40:38;;;;;;;5.15;4.75;;;13.70;60.20;;;;;;4992465;28;20045;-45
2022/12/13 09:43:04;;;;;;;5.40;5.00;;;13.70;60.00;;;;;;4989807;28;20508;-45
2022/12/13 09:45:29;;;;;;;5.65;5.18;;;13.60;60.10;;;;;;4987488;28;20035;-45
2022/12/13 09:47:55;;;;;;;6.57;4.93;;;13.50;60.70;;;;;;5013712;28;20489;-45
2022/12/13 09:50:27;;;;;;;5.20;4.80;;;13.40;61.10;;;;;;4988917;28;20034;-45
2022/12/13 09:52:53;;;;;;;5.38;4.68;;;13.40;61.20;;;;;;4987945;28;20125;-45
2022/12/13 09:55:24;;;;;;;4.90;4.60;;;13.40;61.10;;;;;;4992408;28;20135;-47
2022/12/13 09:57:50;;;;;;;5.45;5.03;;;13.40;61.00;;;;;;4990812;28;20049;-46
2022/12/13 10:00:20;;;;;;;5.18;4.78;;;13.50;60.90;;;;;;4985654;28;20050;-45
2022/12/13 10:02:56;;;;;;;4.88;4.47;;;13.50;60.80;;;;;;4986068;28;20051;-46
2022/12/13 10:05:35;;;;;;;4.90;4.50;;;13.40;61.00;;;;;;4987428;28;20042;-45
2022/12/13 10:08:05;;;;;;;4.95;4.55;;;13.40;61.00;;;;;;4989174;28;20038;-45
2022/12/13 10:10:31;;;;;;;4.65;4.30;;;13.40;61.10;;;;;;4989225;28;20155;-47
2022/12/13 10:13:20;;;;;;;4.78;4.38;;;13.30;61.30;;;;;;4988055;28;20418;-45
2022/12/13 10:16:05;;;;;;;4.95;4.55;;;13.30;61.30;;;;;;4988454;28;20077;-44
2022/12/13 10:18:36;;;;;;;4.63;4.32;;;13.30;61.40;;;;;;4985518;28;20046;-45
2022/12/13 10:21:04;;;;;;;4.45;4.15;;;13.30;61.40;;;;;;4991441;28;20066;-45
2022/12/13 10:23:29;;;;;;;5.38;4.97;;;13.40;61.00;;;;;;4989213;28;20058;-45
2022/12/13 10:25:55;;;;;;;4.30;4.00;;;13.70;60.50;;;;;;4989403;28;20595;-45
2022/12/13 10:28:29;;;;;;;4.68;4.38;;;13.60;60.10;;;;;;4988372;28;20050;-46
2022/12/13 10:30:54;;;;;;;5.20;4.75;;;13.60;60.40;;;;;;4985485;28;20050;-45
2022/12/13 10:33:31;;;;;;;4.32;4.13;;;13.50;60.40;;;;;;4988722;28;20516;-45
2022/12/13 10:36:12;;;;;;;4.22;3.92;;;13.40;60.60;;;;;;4985490;28;20411;-45
2022/12/13 10:38:44;;;;;;;4.82;4.53;;;13.50;61.50;;;;;;4989435;28;20504;-45
2022/12/13 10:41:37;;;;;;;4.95;4.57;;;13.80;59.80;;;;;;4987370;28;20050;-45
2022/12/13 10:44:19;;;;;;;4.40;4.10;;;13.70;59.70;;;;;;4987220;28;20042;-46
2022/12/13 10:46:52;;;;;;;4.30;4.00;;;13.80;59.60;;;;;;4988446;28;20069;-45
2022/12/13 10:49:22;;;;;;;4.38;3.97;;;13.90;59.40;;;;;;4989732;28;20042;-45
2022/12/13 10:51:50;;;;;;;4.32;4.03;;;14.00;59.20;;;;;;4984662;28;20059;-47
2022/12/13 10:54:37;;;;;;;5.30;4.80;;;14.00;59.80;;;;;;4990248;28;20126;-45
2022/12/13 10:57:03;;;;;;;4.90;4.50;;;14.00;59.10;;;;;;5010919;28;20091;-50
2022/12/13 10:59:33;;;;;;;4.50;4.20;;;13.90;59.20;;;;;;4991076;28;20042;-45
2022/12/13 11:02:00;;;;;;;4.60;4.20;;;13.90;59.00;;;;;;4988802;28;20042;-46
2022/12/13 11:04:28;;;;;;;4.18;3.88;;;14.00;59.00;;;;;;4988400;28;20048;-45
2022/12/13 11:06:53;;;;;;;4.18;3.88;;;13.80;59.40;;;;;;4988007;28;20049;-43
2022/12/13 11:09:30;;;;;;;3.58;3.38;;;13.80;59.40;;;;;;4989848;28;20046;-47
2022/12/13 11:11:57;;;;;;;4.40;4.07;;;13.60;59.70;;;;;;4986808;28;20454;-45
2022/12/13 11:14:25;;;;;;;4.28;4.00;;;13.70;59.70;;;;;;4989563;28;20643;-45
2022/12/13 11:16:56;;;;;;;4.47;4.18;;;13.70;59.50;;;;;;4985906;28;20042;-44
2022/12/13 11:19:45;;;;;;;3.85;3.63;;;13.80;59.30;;;;;;4987485;28;20038;-45
2022/12/13 11:22:25;;;;;;;4.57;4.28;;;13.70;59.50;;;;;;4985779;28;20408;-48
2022/12/13 11:24:51;;;;;;;4.20;4.00;;;13.80;59.30;;;;;;4989705;28;20072;-44
2022/12/13 11:27:20;;;;;;;4.55;4.25;;;13.80;59.30;;;;;;4988356;28;20050;-46
2022/12/13 11:30:11;;;;;;;4.85;4.45;;;13.90;59.20;;;;;;4986701;28;20057;-46
2022/12/13 11:32:53;;;;;;;4.05;3.72;;;13.90;59.10;;;;;;4987495;28;20125;-45
2022/12/13 11:35:46;;;;;;;4.05;3.75;;;13.90;59.00;;;;;;4987630;28;20507;-46
2022/12/13 11:38:24;;;;;;;4.18;3.88;;;14.00;59.00;;;;;;4986787;28;20046;-45
2022/12/13 11:40:53;;;;;;;4.15;3.85;;;14.00;58.90;;;;;;4983758;28;20566;-41
2022/12/13 11:43:38;;;;;;;3.78;3.58;;;14.00;58.80;;;;;;4987815;28;20038;-46
2022/12/13 11:46:12;;;;;;;4.03;3.65;;;14.00;58.80;;;;;;4985323;28;20039;-48
2022/12/13 11:48:50;;;;;;;4.20;3.90;;;14.00;58.90;;;;;;4987083;28;20526;-45
2022/12/13 11:51:21;;;;;;;3.97;3.75;;;14.00;58.80;;;;;;4974239;28;20058;-45
2022/12/13 11:53:58;;;;;;;4.20;3.90;;;14.00;58.90;;;;;;4979800;28;20094;-45
2022/12/13 11:56:34;;;;;;;3.70;3.45;;;13.90;59.00;;;;;;4993223;28;20051;-45
2022/12/13 11:59:15;;;;;;;3.80;3.60;;;13.90;59.20;;;;;;4984748;28;20050;-45
2022/12/13 12:01:44;;;;;;;4.25;3.95;;;13.80;59.10;;;;;;4997927;28;20145;-45
2022/12/13 12:04:30;;;;;;;3.72;3.35;;;13.80;59.20;;;;;;4987455;28;20046;-44
2022/12/13 12:07:00;;;;;;;3.30;3.10;;;13.70;59.20;;;;;;5008905;28;20089;-46
2022/12/13 12:09:26;;;;;;;3.40;3.17;;;13.70;59.40;;;;;;4982256;28;20042;-45
2022/12/13 12:11:59;;;;;;;3.40;3.20;;;13.80;59.20;;;;;;4987243;28;20419;-43
2022/12/13 12:14:43;;;;;;;3.65;3.35;;;13.80;58.90;;;;;;4987418;28;20129;-45
2022/12/13 12:17:13;;;;;;;3.28;3.08;;;13.80;59.00;;;;;;4984839;28;20092;-45
2022/12/13 12:19:40;;;;;;;3.67;3.25;;;13.70;59.30;;;;;;4983987;28;20038;-49
2022/12/13 12:22:22;;;;;;;3.10;2.90;;;13.70;59.20;;;;;;4985358;28;20065;-45
2022/12/13 12:25:13;;;;;;;3.22;3.03;;;13.70;59.30;;;;;;4980450;28;20078;-45
2022/12/13 12:28:03;;;;;;;3.30;3.10;;;13.60;59.30;;;;;;4981706;28;20512;-45
2022/12/13 12:30:57;;;;;;;3.50;3.30;;;13.60;59.60;;;;;;4980995;28;20681;-47
2022/12/13 12:33:36;;;;;;;3.30;3.10;;;13.50;59.50;;;;;;4975415;28;20077;-46
2022/12/13 12:36:19;;;;;;;2.83;2.70;;;13.60;59.60;;;;;;4970186;28;20181;-47
2022/12/13 12:39:08;;;;;;;3.28;3.00;;;13.50;59.40;;;;;;5006825;28;20129;-47
2022/12/13 12:41:52;;;;;;;3.00;2.88;;;13.50;59.70;;;;;;5011796;28;20070;-46
2022/12/13 12:44:37;;;;;;;3.00;2.72;;;13.50;59.70;;;;;;4987832;28;20070;-46
2022/12/13 12:47:18;;;;;;;3.33;3.13;;;13.50;59.70;;;;;;4986392;28;20054;-47
2022/12/13 12:49:50;;;;;;;2.83;2.63;;;13.60;59.50;;;;;;4987043;28;20057;-46
2022/12/13 12:52:28;;;;;;;2.83;2.63;;;13.60;59.50;;;;;;4986579;28;20062;-47
2022/12/13 12:55:14;;;;;;;3.08;2.88;;;13.60;59.40;;;;;;4985667;28;20565;-47
2022/12/13 12:58:09;;;;;;;2.58;2.47;;;13.60;59.30;;;;;;4985746;28;20046;-48
2022/12/13 13:00:54;;;;;;;3.10;2.90;;;13.60;59.20;;;;;;4972395;28;20054;-47
2022/12/13 13:03:24;;;;;;;3.95;2.70;;;13.60;59.20;;;;;;4981486;28;20282;-46
2022/12/13 13:05:54;;;;;;;3.25;3.05;;;13.60;59.10;;;;;;4981447;28;20129;-47